createdAt,value
2016-09-06T00:00:53.702Z,1010.30
2016-09-06T00:01:25.840Z,1010.39
2016-09-06T00:01:59.755Z,1010.18
2016-09-06T00:02:21.633Z,1010.38
2016-09-06T00:03:17.857Z,1010.31
2016-09-06T00:05:24.606Z,1010.42
2016-09-06T00:05:46.347Z,1010.53
2016-09-06T00:06:39.370Z,1010.33
2016-09-06T00:07:32.421Z,1010.50
2016-09-06T00:08:06.526Z,1010.40
2016-09-06T00:08:45.028Z,1010.47
2016-09-06T00:10:38.404Z,1010.44
2016-09-06T00:11:00.161Z,1010.46
2016-09-06T00:11:27.712Z,1010.48
2016-09-06T00:12:28.080Z,1010.40
2016-09-06T00:12:57.053Z,1010.50
2016-09-06T00:14:12.696Z,1010.21
2016-09-06T00:14:46.522Z,1010.34
2016-09-06T00:15:20.419Z,1010.26
2016-09-06T00:15:47.018Z,1010.35
2016-09-06T00:16:16.657Z,1010.45
2016-09-06T00:16:50.563Z,1010.35
2016-09-06T00:17:22.851Z,1010.39
2016-09-06T00:17:44.746Z,1010.52
2016-09-06T00:18:33.671Z,1010.65
2016-09-06T00:22:08.682Z,1010.43
2016-09-06T00:22:56.894Z,1010.41
2016-09-06T00:23:24.423Z,1010.35
2016-09-06T00:23:50.963Z,1010.43
2016-09-06T00:24:22.470Z,1010.42
2016-09-06T00:24:49.351Z,1010.40
2016-09-06T00:25:49.079Z,1010.45
2016-09-06T00:27:23.716Z,1010.67
2016-09-06T00:27:51.396Z,1010.70
2016-09-06T00:28:58.786Z,1010.93
2016-09-06T00:30:11.079Z,1010.23
2016-09-06T00:32:05.277Z,1010.39
2016-09-06T00:32:38.583Z,1010.65
2016-09-06T00:33:56.890Z,1010.85
2016-09-06T00:35:06.859Z,1010.58
2016-09-06T00:35:35.598Z,1010.53
2016-09-06T00:36:46.539Z,1010.65
2016-09-06T00:37:18.951Z,1010.43
2016-09-06T00:38:27.748Z,1010.65
2016-09-06T00:39:09.361Z,1010.54
2016-09-06T00:40:07.210Z,1010.56
2016-09-06T00:41:58.199Z,1010.79
2016-09-06T00:43:09.296Z,1010.74
2016-09-06T00:43:32.126Z,1010.59
2016-09-06T00:44:03.406Z,1010.34
2016-09-06T00:44:35.547Z,1010.56
2016-09-06T00:45:39.725Z,1010.47
2016-09-06T00:46:43.114Z,1010.52
2016-09-06T00:47:14.219Z,1010.52
2016-09-06T00:47:51.095Z,1010.60
2016-09-06T00:48:22.439Z,1010.55
2016-09-06T00:49:48.791Z,1010.54
2016-09-06T00:50:19.456Z,1010.42
2016-09-06T00:50:46.030Z,1010.42
2016-09-06T00:51:38.001Z,1010.86
2016-09-06T00:52:05.386Z,1010.65
2016-09-06T00:52:31.979Z,1010.57
2016-09-06T00:52:59.611Z,1010.51
2016-09-06T04:08:55.813Z,1011.63
2016-09-06T04:11:29.572Z,1011.49
2016-09-06T04:26:43.434Z,1011.42
2016-09-06T05:06:19.182Z,1011.93
2016-09-06T05:06:40.955Z,1011.74
2016-09-06T05:07:07.494Z,1011.71
2016-09-06T05:07:29.246Z,1011.66
2016-09-06T05:07:51.028Z,1011.60
2016-09-06T05:08:12.775Z,1011.65
2016-09-06T05:08:34.528Z,1011.56
2016-09-06T05:09:05.810Z,1011.68
2016-09-06T05:09:54.049Z,1011.76
2016-09-06T05:10:15.797Z,1011.85
2016-09-06T05:11:05.063Z,1011.64
2016-09-06T05:11:26.965Z,1011.75
2016-09-06T05:11:49.706Z,1011.69
2016-09-06T05:12:11.458Z,1011.62
2016-09-06T05:12:42.741Z,1011.75
2016-09-06T05:13:04.501Z,1011.64
2016-09-06T05:13:26.229Z,1011.80
2016-09-06T05:13:47.965Z,1011.76
2016-09-06T05:14:09.766Z,1011.55
2016-09-06T05:14:31.509Z,1011.74
2016-09-06T05:14:53.345Z,1011.70
2016-09-06T05:15:15.334Z,1011.78
2016-09-06T05:15:37.047Z,1011.76
2016-09-06T05:15:58.782Z,1011.72
2016-09-06T05:16:20.651Z,1011.72
2016-09-06T05:16:42.376Z,1011.69
2016-09-06T05:17:04.107Z,1011.86
2016-09-06T05:17:25.838Z,1011.74
2016-09-06T05:17:47.566Z,1011.68
2016-09-06T05:18:09.297Z,1011.69
2016-09-06T05:18:31.027Z,1011.87
2016-09-06T05:18:52.901Z,1011.89
2016-09-06T05:19:14.596Z,1011.82
2016-09-06T05:19:36.330Z,1011.78
2016-09-06T05:19:58.056Z,1011.82
2016-09-06T05:20:19.787Z,1011.94
2016-09-06T05:20:41.566Z,1011.81
2016-09-06T05:21:03.332Z,1011.83
2016-09-06T05:21:25.060Z,1011.82
2016-09-06T05:21:46.782Z,1011.75
2016-09-06T05:22:08.510Z,1011.79
2016-09-06T05:22:30.248Z,1011.81
2016-09-06T05:22:52.046Z,1011.69
2016-09-06T05:23:18.549Z,1011.70
2016-09-06T05:23:40.276Z,1011.68
2016-09-06T05:24:02.008Z,1011.81
2016-09-06T05:24:24.747Z,1012.03
2016-09-06T05:24:46.471Z,1012.09
2016-09-06T05:25:08.196Z,1012.11
2016-09-06T05:25:29.924Z,1011.96
2016-09-06T05:25:51.656Z,1011.90
2016-09-06T05:26:13.384Z,1011.84
2016-09-06T05:26:35.125Z,1011.83
2016-09-06T05:26:56.884Z,1011.79
2016-09-06T05:27:18.622Z,1011.82
2016-09-06T05:27:40.344Z,1011.74
2016-09-06T05:28:02.181Z,1011.80
2016-09-06T05:28:24.021Z,1011.70
2016-09-06T05:28:45.751Z,1011.90
2016-09-06T05:29:07.490Z,1011.90
2016-09-06T05:29:29.220Z,1011.84
2016-09-06T05:29:51.943Z,1011.79
2016-09-06T05:30:13.674Z,1011.72
2016-09-06T05:30:35.406Z,1011.76
2016-09-06T05:30:57.176Z,1011.81
2016-09-06T05:31:18.898Z,1011.81
2016-09-06T05:31:40.628Z,1011.82
2016-09-06T05:32:02.353Z,1011.85
2016-09-06T05:32:24.081Z,1011.92
2016-09-06T05:32:50.581Z,1011.99
2016-09-06T05:33:38.833Z,1011.82
2016-09-06T05:34:00.552Z,1011.85
2016-09-06T05:34:27.051Z,1012.06
2016-09-06T05:34:51.496Z,1011.93
2016-09-06T05:35:15.800Z,1011.88
2016-09-06T05:35:37.537Z,1011.83
2016-09-06T05:35:59.273Z,1011.96
2016-09-06T05:36:20.990Z,1011.80
2016-09-06T05:36:45.608Z,1012.14
2016-09-06T05:37:09.963Z,1012.28
2016-09-06T05:37:36.471Z,1012.15
2016-09-06T05:38:02.957Z,1011.93
2016-09-06T05:38:24.702Z,1011.98
2016-09-06T05:38:51.192Z,1011.90
2016-09-06T05:39:12.920Z,1011.81
2016-09-06T05:39:39.247Z,1012.03
2016-09-06T05:40:00.993Z,1012.03
2016-09-06T05:40:22.718Z,1012.04
2016-09-06T05:40:47.012Z,1012.02
2016-09-06T05:41:08.750Z,1011.94
2016-09-06T05:41:31.556Z,1011.96
2016-09-06T05:41:56.039Z,1011.95
2016-09-06T05:42:17.767Z,1011.97
2016-09-06T05:43:07.565Z,1011.89
2016-09-06T05:43:29.476Z,1011.88
2016-09-06T05:43:55.998Z,1012.01
2016-09-06T05:44:22.494Z,1012.00
2016-09-06T05:44:48.993Z,1012.10
2016-09-06T05:45:10.723Z,1011.92
2016-09-06T05:45:37.217Z,1011.93
2016-09-06T05:45:58.958Z,1011.90
2016-09-06T05:46:48.212Z,1012.10
2016-09-06T05:47:14.705Z,1012.16
2016-09-06T05:47:36.433Z,1012.11
2016-09-06T05:47:59.157Z,1012.08
2016-09-06T05:48:20.879Z,1012.01
2016-09-06T05:48:46.366Z,1012.03
2016-09-06T05:49:10.670Z,1012.12
2016-09-06T05:49:32.391Z,1012.05
2016-09-06T05:49:54.126Z,1012.05
2016-09-06T05:50:15.857Z,1012.09
2016-09-06T05:50:37.590Z,1012.03
2016-09-06T05:50:59.313Z,1012.09
2016-09-06T05:51:21.038Z,1012.08
2016-09-06T05:51:42.806Z,1012.08
2016-09-06T05:52:04.529Z,1012.20
2016-09-06T05:52:26.263Z,1012.28
2016-09-06T05:52:47.988Z,1012.10
2016-09-06T05:53:12.321Z,1012.00
2016-09-06T05:53:34.183Z,1012.07
2016-09-06T05:53:55.915Z,1012.07
2016-09-06T05:54:17.652Z,1012.09
2016-09-06T05:54:39.367Z,1011.99
2016-09-06T05:55:01.095Z,1012.08
2016-09-06T05:55:22.827Z,1011.91
2016-09-06T05:55:44.558Z,1012.31
2016-09-06T05:56:06.276Z,1012.21
2016-09-06T05:56:28.007Z,1012.11
2016-09-06T05:56:49.729Z,1012.00
2016-09-06T05:57:11.454Z,1011.90
2016-09-06T05:57:33.351Z,1011.94
2016-09-06T05:57:55.162Z,1012.07
2016-09-06T05:58:16.897Z,1012.04
2016-09-06T05:58:38.619Z,1012.04
2016-09-06T05:59:00.356Z,1012.12
2016-09-06T05:59:22.081Z,1011.99
2016-09-06T05:59:43.837Z,1012.13
2016-09-06T06:00:05.566Z,1012.24
2016-09-06T06:00:27.284Z,1012.17
2016-09-06T06:00:49.019Z,1012.22
2016-09-06T06:01:10.747Z,1012.19
2016-09-06T06:01:32.487Z,1012.21
2016-09-06T06:01:54.206Z,1012.20
2016-09-06T06:02:15.944Z,1012.20
2016-09-06T06:02:37.671Z,1012.10
2016-09-06T06:02:59.397Z,1012.24
2016-09-06T06:03:21.140Z,1012.13
2016-09-06T06:03:42.865Z,1012.15
2016-09-06T06:04:04.593Z,1012.13
2016-09-06T06:04:26.318Z,1012.26
2016-09-06T06:04:48.053Z,1012.16
2016-09-06T06:05:09.774Z,1012.15
2016-09-06T06:05:31.498Z,1012.07
2016-09-06T06:05:53.230Z,1012.25
2016-09-06T06:06:14.951Z,1012.14
2016-09-06T06:06:36.694Z,1012.24
2016-09-06T06:06:58.427Z,1012.25
2016-09-06T06:07:20.164Z,1012.19
2016-09-06T06:07:41.886Z,1012.12
2016-09-06T06:08:03.637Z,1012.13
2016-09-06T06:08:25.397Z,1012.07
2016-09-06T06:08:47.102Z,1012.21
2016-09-06T06:09:08.826Z,1012.16
2016-09-06T06:09:30.555Z,1012.22
2016-09-06T06:09:52.280Z,1012.25
2016-09-06T06:10:14.002Z,1012.27
2016-09-06T06:10:35.716Z,1012.19
2016-09-06T06:10:57.445Z,1012.18
2016-09-06T06:11:19.166Z,1012.33
2016-09-06T06:11:40.903Z,1012.26
2016-09-06T06:12:02.616Z,1012.22
2016-09-06T06:12:24.330Z,1012.14
2016-09-06T06:12:46.055Z,1012.16
2016-09-06T06:13:07.914Z,1012.20
2016-09-06T06:13:29.636Z,1012.29
2016-09-06T06:13:51.358Z,1012.17
2016-09-06T06:14:13.089Z,1012.27
2016-09-06T06:14:34.823Z,1012.11
2016-09-06T06:14:56.552Z,1012.13
2016-09-06T06:15:18.279Z,1012.36
2016-09-06T06:15:40.005Z,1012.30
2016-09-06T06:16:01.736Z,1012.22
2016-09-06T06:16:23.461Z,1012.19
2016-09-06T06:16:45.195Z,1012.23
2016-09-06T06:17:06.929Z,1012.18
2016-09-06T06:17:28.661Z,1012.08
2016-09-06T06:17:50.389Z,1012.14
2016-09-06T06:18:12.114Z,1012.09
2016-09-06T06:18:33.845Z,1012.16
2016-09-06T06:18:55.569Z,1012.14
2016-09-06T06:19:17.294Z,1012.23
2016-09-06T06:19:39.019Z,1012.09
2016-09-06T06:20:00.744Z,1012.26
2016-09-06T06:20:22.465Z,1012.25
2016-09-06T06:20:44.187Z,1012.15
2016-09-06T06:21:05.924Z,1012.13
2016-09-06T06:21:27.646Z,1012.30
2016-09-06T06:21:49.367Z,1012.19
2016-09-06T06:22:11.102Z,1012.12
2016-09-06T06:22:32.830Z,1012.15
2016-09-06T06:22:54.561Z,1012.11
2016-09-06T06:23:18.967Z,1011.87
2016-09-06T06:23:40.759Z,1011.49
2016-09-06T06:24:02.475Z,1011.11
2016-09-06T06:24:24.190Z,1011.24
2016-09-06T06:24:45.909Z,1011.27
2016-09-06T06:25:07.634Z,1011.79
2016-09-06T06:25:29.361Z,1012.08
2016-09-06T06:25:51.082Z,1012.52
2016-09-06T06:26:17.570Z,1012.67
2016-09-06T06:26:39.288Z,1012.62
2016-09-06T06:27:01.016Z,1012.56
2016-09-06T06:27:22.843Z,1012.33
2016-09-06T06:27:44.526Z,1012.38
2016-09-06T06:28:06.254Z,1012.40
2016-09-06T06:28:27.973Z,1012.23
2016-09-06T06:28:49.708Z,1012.30
2016-09-06T06:29:11.426Z,1012.20
2016-09-06T06:29:33.143Z,1012.16
2016-09-06T06:29:54.852Z,1012.20
2016-09-06T06:30:16.571Z,1012.20
2016-09-06T06:30:38.324Z,1012.29
2016-09-06T06:31:00.047Z,1012.21
2016-09-06T06:31:21.761Z,1012.09
2016-09-06T06:31:43.482Z,1012.36
2016-09-06T06:32:05.214Z,1012.13
2016-09-06T06:32:26.926Z,1012.19
2016-09-06T06:32:48.645Z,1012.30
2016-09-06T06:33:10.414Z,1012.46
2016-09-06T06:33:32.145Z,1012.50
2016-09-06T06:33:53.860Z,1012.34
2016-09-06T06:34:15.579Z,1012.38
2016-09-06T06:34:37.300Z,1012.18
2016-09-06T06:34:59.035Z,1012.15
2016-09-06T06:35:20.769Z,1012.16
2016-09-06T06:35:42.481Z,1012.17
2016-09-06T06:36:04.200Z,1012.16
2016-09-06T06:36:28.754Z,1012.17
2016-09-06T06:36:50.468Z,1012.30
2016-09-06T06:37:12.194Z,1012.33
2016-09-06T06:37:33.915Z,1012.26
2016-09-06T06:37:55.627Z,1012.21
2016-09-06T06:38:17.342Z,1012.32
2016-09-06T06:38:39.058Z,1012.26
2016-09-06T06:39:00.782Z,1012.26
2016-09-06T06:39:22.510Z,1012.27
2016-09-06T06:39:44.228Z,1012.29
2016-09-06T06:40:05.967Z,1012.27
2016-09-06T06:40:27.687Z,1012.27
2016-09-06T06:40:49.423Z,1012.27
2016-09-06T06:41:11.146Z,1012.24
2016-09-06T06:41:32.869Z,1012.24
2016-09-06T06:41:54.594Z,1012.37
2016-09-06T06:42:16.315Z,1012.26
2016-09-06T06:42:39.048Z,1012.36
2016-09-06T06:43:00.766Z,1012.27
2016-09-06T06:43:22.487Z,1012.30
2016-09-06T06:43:44.279Z,1012.19
2016-09-06T06:44:05.999Z,1012.27
2016-09-06T06:44:27.720Z,1012.23
2016-09-06T06:44:49.518Z,1012.41
2016-09-06T06:45:11.249Z,1012.40
2016-09-06T06:45:32.977Z,1012.22
2016-09-06T06:45:54.693Z,1012.15
2016-09-06T06:46:16.433Z,1012.25
2016-09-06T06:46:38.145Z,1012.31
2016-09-06T06:46:59.870Z,1012.31
2016-09-06T06:47:21.672Z,1012.39
2016-09-06T06:47:43.391Z,1012.34
2016-09-06T06:48:05.111Z,1012.16
2016-09-06T06:48:26.852Z,1012.37
2016-09-06T06:48:48.565Z,1012.23
2016-09-06T06:49:10.287Z,1012.39
2016-09-06T06:49:31.999Z,1012.26
2016-09-06T06:49:53.746Z,1012.24
2016-09-06T06:50:15.458Z,1012.35
2016-09-06T06:50:37.186Z,1012.31
2016-09-06T06:50:58.897Z,1012.20
2016-09-06T06:51:20.626Z,1012.34
2016-09-06T06:51:42.352Z,1012.32
2016-09-06T06:52:04.068Z,1012.24
2016-09-06T06:52:25.784Z,1012.29
2016-09-06T06:52:47.513Z,1012.34
2016-09-06T06:53:09.233Z,1012.30
2016-09-06T06:53:30.953Z,1012.27
2016-09-06T06:53:52.667Z,1012.34
2016-09-06T06:54:17.279Z,1012.30
2016-09-06T06:54:38.996Z,1012.29
2016-09-06T06:55:00.728Z,1012.29
2016-09-06T06:55:22.440Z,1012.26
2016-09-06T06:55:44.168Z,1012.36
2016-09-06T06:56:05.877Z,1012.30
2016-09-06T06:56:27.588Z,1012.40
2016-09-06T06:56:49.308Z,1012.38
2016-09-06T06:57:11.013Z,1012.30
2016-09-06T06:57:32.731Z,1012.38
2016-09-06T06:57:54.453Z,1012.37
2016-09-06T06:58:17.176Z,1012.31
2016-09-06T06:58:38.901Z,1012.39
2016-09-06T06:59:00.636Z,1012.32
2016-09-06T06:59:22.472Z,1012.21
2016-09-06T06:59:44.197Z,1012.25
2016-09-06T07:00:05.926Z,1012.23
2016-09-06T07:00:27.637Z,1012.34
2016-09-06T07:00:49.359Z,1012.35
2016-09-06T07:01:15.847Z,1012.38
2016-09-06T07:01:40.184Z,1012.36
2016-09-06T07:02:01.905Z,1012.32
2016-09-06T07:02:27.851Z,1012.30
2016-09-06T07:02:49.572Z,1012.44
2016-09-06T07:03:11.288Z,1012.32
2016-09-06T07:03:33.010Z,1012.29
2016-09-06T07:03:54.731Z,1012.23
2016-09-06T07:04:16.446Z,1012.29
2016-09-06T07:04:38.163Z,1012.34
2016-09-06T07:04:59.907Z,1012.41
2016-09-06T07:05:21.620Z,1012.42
2016-09-06T07:05:43.346Z,1012.43
2016-09-06T07:06:05.157Z,1012.39
2016-09-06T07:06:26.872Z,1012.36
2016-09-06T07:06:48.597Z,1012.26
2016-09-06T07:07:10.319Z,1012.32
2016-09-06T07:07:32.040Z,1012.30
2016-09-06T07:07:53.784Z,1012.41
2016-09-06T07:08:15.509Z,1012.33
2016-09-06T07:08:37.238Z,1012.37
2016-09-06T07:08:58.966Z,1012.41
2016-09-06T07:09:20.718Z,1012.35
2016-09-06T07:09:44.846Z,1012.44
2016-09-06T07:10:33.077Z,1012.50
2016-09-06T07:10:54.790Z,1012.52
2016-09-06T07:11:16.507Z,1012.50
2016-09-06T07:11:38.212Z,1012.46
2016-09-06T07:11:59.977Z,1012.39
2016-09-06T07:12:21.697Z,1012.40
2016-09-06T07:12:43.407Z,1012.43
2016-09-06T07:13:05.125Z,1012.37
2016-09-06T07:13:26.850Z,1012.43
2016-09-06T07:13:48.568Z,1012.41
2016-09-06T07:14:10.296Z,1012.45
2016-09-06T07:14:32.018Z,1012.43
2016-09-06T07:14:53.730Z,1012.43
2016-09-06T07:15:16.443Z,1012.35
2016-09-06T07:15:38.172Z,1012.44
2016-09-06T07:16:02.649Z,1012.51
2016-09-06T07:16:24.373Z,1012.44
2016-09-06T07:16:46.113Z,1012.45
2016-09-06T07:17:07.837Z,1012.44
2016-09-06T07:17:32.411Z,1012.37
2016-09-06T07:17:54.149Z,1012.44
2016-09-06T07:18:56.677Z,1012.43
2016-09-06T07:19:21.315Z,1012.46
2016-09-06T07:19:52.386Z,1012.51
2016-09-06T07:20:14.117Z,1012.45
2016-09-06T07:20:35.832Z,1012.38
2016-09-06T07:20:57.551Z,1012.42
2016-09-06T07:21:19.275Z,1012.36
2016-09-06T07:21:41.000Z,1012.42
2016-09-06T07:22:02.725Z,1012.44
2016-09-06T07:22:24.453Z,1012.41
2016-09-06T07:22:46.181Z,1012.41
2016-09-06T07:23:07.916Z,1012.40
2016-09-06T07:23:29.659Z,1012.38
2016-09-06T07:23:51.390Z,1012.36
2016-09-06T07:24:13.110Z,1012.43
2016-09-06T07:25:10.979Z,1012.39
2016-09-06T07:25:32.703Z,1012.40
2016-09-06T07:25:59.187Z,1012.35
2016-09-06T07:26:20.910Z,1012.54
2016-09-06T07:26:42.636Z,1012.34
2016-09-06T07:27:04.370Z,1012.31
2016-09-06T07:27:28.713Z,1012.37
2016-09-06T07:27:50.464Z,1012.39
2016-09-06T07:28:12.533Z,1012.38
2016-09-06T07:28:35.423Z,1012.37
2016-09-06T07:28:58.258Z,1012.50
2016-09-06T07:29:20.049Z,1012.46
2016-09-06T07:29:42.172Z,1012.41
2016-09-06T07:30:03.926Z,1012.34
2016-09-06T07:30:25.823Z,1012.49
2016-09-06T07:30:48.610Z,1012.41
2016-09-06T07:31:13.420Z,1012.46
2016-09-06T07:31:35.353Z,1012.44
2016-09-06T07:31:59.733Z,1012.41
2016-09-06T07:32:26.267Z,1012.34
2016-09-06T07:32:48.011Z,1012.31
2016-09-06T07:33:09.750Z,1012.32
2016-09-06T07:33:31.516Z,1012.32
2016-09-06T07:33:53.621Z,1012.33
2016-09-06T07:34:20.335Z,1012.35
2016-09-06T07:34:42.265Z,1012.33
2016-09-06T07:35:08.866Z,1012.33
2016-09-06T07:35:30.606Z,1012.33
2016-09-06T07:35:52.367Z,1012.33
2016-09-06T07:36:14.114Z,1012.39
2016-09-06T07:36:35.851Z,1012.45
2016-09-06T07:36:58.598Z,1012.53
2016-09-06T07:37:21.343Z,1012.47
2016-09-06T07:37:44.217Z,1012.40
2016-09-06T07:38:06.067Z,1012.39
2016-09-06T07:38:27.926Z,1012.40
2016-09-06T07:38:49.832Z,1012.37
2016-09-06T07:39:11.586Z,1012.40
2016-09-06T07:39:33.346Z,1012.47
2016-09-06T07:39:56.262Z,1012.42
2016-09-06T07:40:18.006Z,1012.41
2016-09-06T07:40:39.739Z,1012.49
2016-09-06T07:41:01.539Z,1012.51
2016-09-06T07:41:23.481Z,1012.42
2016-09-06T07:41:45.868Z,1012.47
2016-09-06T07:42:09.002Z,1012.41
2016-09-06T07:42:31.013Z,1012.45
2016-09-06T07:42:53.986Z,1012.41
2016-09-06T07:43:16.047Z,1012.39
2016-09-06T07:44:04.674Z,1012.35
2016-09-06T07:44:31.371Z,1012.45
2016-09-06T07:44:54.255Z,1012.43
2016-09-06T07:45:19.441Z,1012.44
2016-09-06T07:45:45.966Z,1012.44
2016-09-06T07:46:07.971Z,1012.47
2016-09-06T07:46:29.884Z,1012.44
2016-09-06T07:47:23.154Z,1012.46
2016-09-06T07:47:44.927Z,1012.46
2016-09-06T07:48:11.435Z,1012.44
2016-09-06T07:48:34.478Z,1012.32
2016-09-06T07:49:22.873Z,1012.37
2016-09-06T07:49:46.066Z,1012.39
2016-09-06T07:50:12.643Z,1012.38
2016-09-06T07:50:42.811Z,1012.31
2016-09-06T07:51:09.443Z,1012.38
2016-09-06T07:52:13.567Z,1012.41
2016-09-06T07:52:36.367Z,1012.41
2016-09-06T07:53:05.391Z,1012.39
2016-09-06T07:53:54.807Z,1012.47
2016-09-06T07:54:16.863Z,1012.43
2016-09-06T07:55:11.119Z,1012.41
2016-09-06T07:55:37.823Z,1012.39
2016-09-06T07:55:59.570Z,1012.41
2016-09-06T07:56:21.308Z,1012.41
2016-09-06T07:56:43.154Z,1012.41
2016-09-06T07:57:05.078Z,1012.42
2016-09-06T07:57:28.223Z,1012.39
2016-09-06T07:57:50.192Z,1012.44
2016-09-06T07:58:12.025Z,1012.45
2016-09-06T07:58:33.887Z,1012.45
2016-09-06T07:58:55.739Z,1012.45
2016-09-06T07:59:17.554Z,1012.39
2016-09-06T07:59:44.117Z,1012.30
2016-09-06T08:00:10.725Z,1012.39
2016-09-06T08:00:32.565Z,1012.42
2016-09-06T08:00:54.408Z,1012.51
2016-09-06T08:01:16.204Z,1012.56
2016-09-06T08:01:37.938Z,1012.54
2016-09-06T08:02:00.693Z,1012.44
2016-09-06T08:02:22.418Z,1012.45
2016-09-06T08:02:44.382Z,1012.42
2016-09-06T08:03:06.342Z,1012.48
2016-09-06T08:03:34.694Z,1012.45
2016-09-06T08:04:48.333Z,1012.50
2016-09-06T08:05:21.126Z,1012.45
2016-09-06T08:05:43.874Z,1012.44
2016-09-06T08:06:05.651Z,1012.51
2016-09-06T08:06:27.401Z,1012.46
2016-09-06T08:06:57.330Z,1012.41
2016-09-06T08:07:19.090Z,1012.48
2016-09-06T08:07:40.827Z,1012.56
2016-09-06T08:08:08.370Z,1012.46
2016-09-06T08:08:30.312Z,1012.44
2016-09-06T08:08:52.347Z,1012.40
2016-09-06T08:09:14.185Z,1012.40
2016-09-06T08:09:37.142Z,1012.45
2016-09-06T08:09:59.049Z,1012.46
2016-09-06T08:10:20.946Z,1012.49
2016-09-06T08:10:42.767Z,1012.49
2016-09-06T08:11:04.680Z,1012.46
2016-09-06T08:11:26.462Z,1012.57
2016-09-06T08:11:48.501Z,1012.48
2016-09-06T08:12:10.358Z,1012.46
2016-09-06T08:12:32.107Z,1012.44
2016-09-06T08:12:53.919Z,1012.41
2016-09-06T08:13:16.828Z,1012.48
2016-09-06T08:13:41.471Z,1012.51
2016-09-06T08:14:03.305Z,1012.46
2016-09-06T08:14:25.158Z,1012.45
2016-09-06T08:14:49.903Z,1012.49
2016-09-06T08:15:11.737Z,1012.48
2016-09-06T08:15:33.858Z,1012.46
2016-09-06T08:16:00.479Z,1012.52
2016-09-06T08:16:22.418Z,1012.50
2016-09-06T08:16:44.312Z,1012.48
2016-09-06T08:17:06.137Z,1012.49
2016-09-06T08:17:29.039Z,1012.50
2016-09-06T08:17:51.788Z,1012.53
2016-09-06T08:18:14.680Z,1012.51
2016-09-06T08:18:37.506Z,1012.46
2016-09-06T08:19:04.127Z,1012.59
2016-09-06T08:19:26.092Z,1012.56
2016-09-06T08:19:47.851Z,1012.58
2016-09-06T08:20:09.701Z,1012.59
2016-09-06T08:20:58.118Z,1012.50
2016-09-06T08:21:24.642Z,1012.58
2016-09-06T08:21:51.187Z,1012.54
2016-09-06T08:22:22.494Z,1012.58
2016-09-06T08:22:45.672Z,1012.55
2016-09-06T08:23:07.497Z,1012.57
2016-09-06T08:23:29.283Z,1012.59
2016-09-06T08:23:52.105Z,1012.56
2016-09-06T08:24:13.973Z,1012.59
2016-09-06T08:24:35.813Z,1012.39
2016-09-06T08:24:57.708Z,1012.30
2016-09-06T08:25:19.564Z,1012.48
2016-09-06T08:25:41.484Z,1012.53
2016-09-06T08:26:07.989Z,1012.50
2016-09-06T08:26:29.746Z,1012.52
2016-09-06T08:26:51.487Z,1012.54
2016-09-06T08:27:13.228Z,1012.63
2016-09-06T08:27:36.035Z,1012.40
2016-09-06T08:27:57.915Z,1012.55
2016-09-06T08:28:19.766Z,1012.44
2016-09-06T08:28:41.551Z,1012.53
2016-09-06T08:29:03.385Z,1012.53
2016-09-06T08:29:25.234Z,1012.44
2016-09-06T08:29:46.975Z,1012.45
2016-09-06T08:30:08.709Z,1012.54
2016-09-06T08:30:30.457Z,1012.48
2016-09-06T08:30:52.227Z,1012.46
2016-09-06T08:31:14.175Z,1012.38
2016-09-06T08:31:36.079Z,1012.36
2016-09-06T08:31:57.900Z,1012.57
2016-09-06T08:32:19.753Z,1012.53
2016-09-06T08:32:41.580Z,1012.56
2016-09-06T08:33:03.442Z,1012.47
2016-09-06T08:33:51.686Z,1012.40
2016-09-06T08:34:13.563Z,1012.49
2016-09-06T08:34:35.427Z,1012.60
2016-09-06T08:34:57.240Z,1012.41
2016-09-06T08:35:19.061Z,1012.55
2016-09-06T08:35:40.796Z,1012.46
2016-09-06T08:36:02.578Z,1012.45
2016-09-06T08:36:24.386Z,1012.51
2016-09-06T08:36:46.198Z,1012.53
2016-09-06T08:37:12.696Z,1012.24
2016-09-06T08:37:39.208Z,1012.50
2016-09-06T08:38:00.956Z,1012.51
2016-09-06T08:38:22.697Z,1012.49
2016-09-06T08:38:44.457Z,1012.43
2016-09-06T08:39:07.309Z,1012.54
2016-09-06T08:39:29.083Z,1012.51
2016-09-06T08:39:50.826Z,1012.53
2016-09-06T08:40:12.626Z,1012.44
2016-09-06T08:40:34.431Z,1012.35
2016-09-06T08:40:56.169Z,1012.41
2016-09-06T08:41:17.919Z,1012.39
2016-09-06T08:41:44.441Z,1012.43
2016-09-06T08:42:11.049Z,1012.38
2016-09-06T08:42:32.882Z,1012.23
2016-09-06T08:42:54.632Z,1012.39
2016-09-06T08:43:17.455Z,1012.55
2016-09-06T08:43:39.359Z,1012.49
2016-09-06T08:44:01.074Z,1012.43
2016-09-06T08:44:23.817Z,1012.45
2016-09-06T08:44:45.557Z,1012.43
2016-09-06T08:45:07.314Z,1012.43
2016-09-06T08:45:29.199Z,1012.42
2016-09-06T08:45:53.061Z,1012.48
2016-09-06T08:46:14.844Z,1012.49
2016-09-06T08:46:36.583Z,1012.45
2016-09-06T08:46:58.386Z,1012.44
2016-09-06T08:47:20.185Z,1012.36
2016-09-06T08:47:41.926Z,1012.21
2016-09-06T08:48:08.492Z,1012.31
2016-09-06T08:48:30.245Z,1012.49
2016-09-06T08:48:52.044Z,1012.52
2016-09-06T08:49:13.788Z,1012.45
2016-09-06T08:49:35.647Z,1012.45
2016-09-06T08:49:57.413Z,1012.40
2016-09-06T08:50:19.266Z,1012.54
2016-09-06T08:50:41.129Z,1012.50
2016-09-06T08:51:02.985Z,1012.46
2016-09-06T08:51:24.783Z,1012.45
2016-09-06T08:51:46.623Z,1012.21
2016-09-06T08:52:08.504Z,1012.37
2016-09-06T08:52:30.399Z,1012.50
2016-09-06T08:52:55.129Z,1012.55
2016-09-06T08:53:16.895Z,1012.55
2016-09-06T08:53:38.652Z,1012.55
2016-09-06T08:54:00.389Z,1012.39
2016-09-06T08:54:22.210Z,1012.28
2016-09-06T08:54:43.987Z,1012.55
2016-09-06T08:55:05.813Z,1012.61
2016-09-06T08:55:27.775Z,1012.61
2016-09-06T08:55:49.506Z,1012.57
2016-09-06T08:56:11.276Z,1012.47
2016-09-06T08:56:33.003Z,1012.42
2016-09-06T08:56:54.754Z,1012.53
2016-09-06T08:57:16.476Z,1012.47
2016-09-06T08:57:38.194Z,1012.41
2016-09-06T08:57:59.945Z,1012.48
2016-09-06T08:58:21.681Z,1012.52
2016-09-06T08:58:48.181Z,1012.61
2016-09-06T08:59:09.906Z,1012.58
2016-09-06T08:59:31.644Z,1012.53
2016-09-06T08:59:53.545Z,1012.45
2016-09-06T09:00:15.430Z,1012.54
2016-09-06T09:00:37.161Z,1012.53
2016-09-06T09:00:58.911Z,1012.56
2016-09-06T09:01:23.647Z,1012.61
2016-09-06T09:01:45.375Z,1012.59
2016-09-06T09:02:07.103Z,1012.51
2016-09-06T09:02:28.907Z,1012.43
2016-09-06T09:02:50.652Z,1012.49
2016-09-06T09:03:12.377Z,1012.50
2016-09-06T09:03:34.130Z,1012.45
2016-09-06T09:03:55.862Z,1012.40
2016-09-06T09:04:17.603Z,1012.50
2016-09-06T09:04:39.340Z,1012.43
2016-09-06T09:05:01.071Z,1012.51
2016-09-06T09:05:22.809Z,1012.55
2016-09-06T09:05:44.543Z,1012.54
2016-09-06T09:06:08.886Z,1012.53
2016-09-06T09:06:31.605Z,1012.39
2016-09-06T09:06:53.480Z,1012.49
2016-09-06T09:07:15.129Z,1012.37
2016-09-06T09:07:37.018Z,1012.47
2016-09-06T09:07:58.601Z,1012.53
2016-09-06T09:08:20.338Z,1012.54
2016-09-06T09:08:44.498Z,1012.43
2016-09-06T09:09:06.239Z,1012.43
2016-09-06T09:09:28.981Z,1012.36
2016-09-06T09:09:50.723Z,1012.53
2016-09-06T09:10:12.469Z,1012.34
2016-09-06T09:10:34.223Z,1012.60
2016-09-06T09:10:55.960Z,1012.53
2016-09-06T09:11:17.715Z,1012.48
2016-09-06T09:11:39.449Z,1012.45
2016-09-06T09:12:01.183Z,1012.59
2016-09-06T09:12:22.921Z,1012.58
2016-09-06T09:12:44.764Z,1012.52
2016-09-06T09:13:06.496Z,1012.55
2016-09-06T09:13:28.220Z,1012.54
2016-09-06T09:13:49.945Z,1012.47
2016-09-06T09:14:39.180Z,1012.43
2016-09-06T09:15:03.720Z,1012.51
2016-09-06T09:15:25.446Z,1012.47
2016-09-06T09:15:47.177Z,1012.35
2016-09-06T09:16:08.924Z,1012.40
2016-09-06T09:16:35.433Z,1012.51
2016-09-06T09:16:57.165Z,1012.39
2016-09-06T09:17:21.756Z,1012.38
2016-09-06T09:17:43.493Z,1012.34
2016-09-06T09:18:05.249Z,1012.19
2016-09-06T09:18:31.607Z,1012.03
2016-09-06T09:18:58.140Z,1012.31
2016-09-06T09:19:27.056Z,1012.14
2016-09-06T09:19:51.353Z,1012.48
2016-09-06T09:20:20.252Z,1012.31
2016-09-06T09:20:46.778Z,1012.35
2016-09-06T09:21:37.685Z,1012.21
2016-09-06T09:22:01.451Z,1012.43
2016-09-06T09:22:23.177Z,1012.35